Aberdeen, North Carolina
Current Conditions -  °F | °C
As of 12:55 PM on Monday 22 Dec 2014 (Local Time) from KSOP Reporting Station
Overcast Overcast  
Wind Chill: 33°   Ceiling: 300
Heat Index: 39°   Visibility: 2.5mi
Dew Point: 36°   Wind: 9mph
Humidity: 87%   Direction: 20°NNE
Pressure: 30.09"   Gusts: NA
Location:  35.13°N, 79.43°W
Report Text: KSOP 221755Z AUTO 02008KT 2 1/2SM OVC003 04/02 A3009 RMK AO1 60001 10040 20030 57014
Loading
Personal Weather Stations






























Interactive Weather Map New forecast layout! Learn more

10-Day Weather Forecast

Advertisements
Track Severe Weather on mobile